Time;durP1;ratioP1;P1;durP2;ratioP2;P2;SDS_P1;SDS_P2;PMS_P1;PMS_P2;Temp;Humidity;BMP_temperature;BMP_pressure;BME280_temperature;BME280_humidity;BME280_pressure;Samples;Min_cycle;Max_cycle;Signal;HPM_P1;HPM_P2
2022/10/20 03:03:00;;;;;;;1.40;1.30;;;13.50;88.60;;;;;;4992917;23;20915;-73
2022/10/20 03:05:28;;;;;;;2.07;1.60;;;13.60;88.90;;;;;;4976455;28;20450;-74
2022/10/20 03:07:55;;;;;;;1.33;1.33;;;13.60;88.40;;;;;;4976393;28;20446;-74
2022/10/20 03:10:22;;;;;;;1.53;1.43;;;13.60;88.50;;;;;;4975965;28;20827;-75
2022/10/20 03:12:48;;;;;;;1.60;1.50;;;13.50;88.50;;;;;;4975896;28;20991;-75
2022/10/20 03:15:15;;;;;;;1.50;1.40;;;13.60;88.60;;;;;;4976176;28;20549;-74
2022/10/20 03:17:42;;;;;;;1.30;1.30;;;13.50;88.60;;;;;;4977669;28;20450;-75
2022/10/20 03:20:11;;;;;;;1.37;1.37;;;13.50;89.30;;;;;;4976106;28;20454;-75
2022/10/20 03:22:37;;;;;;;1.43;1.43;;;13.40;89.40;;;;;;4976065;28;20482;-75
2022/10/20 03:25:05;;;;;;;1.50;1.50;;;13.40;89.90;;;;;;4976026;28;20446;-75
2022/10/20 03:27:31;;;;;;;1.23;1.23;;;13.40;90.00;;;;;;4977052;28;20454;-74
2022/10/20 03:29:58;;;;;;;1.67;1.67;;;13.40;90.00;;;;;;4975653;28;20504;-75
2022/10/20 03:32:25;;;;;;;1.60;1.53;;;13.40;89.90;;;;;;4975582;28;20895;-75
2022/10/20 03:34:51;;;;;;;1.50;1.40;;;13.50;89.70;;;;;;4975785;28;20478;-74
2022/10/20 03:37:19;;;;;;;1.70;1.60;;;13.40;89.70;;;;;;4975814;28;20828;-75
2022/10/20 03:39:46;;;;;;;1.37;1.37;;;13.40;90.10;;;;;;4975750;28;20453;-75
2022/10/20 03:42:13;;;;;;;1.40;1.40;;;13.30;90.10;;;;;;4975635;28;20502;-74
2022/10/20 03:44:40;;;;;;;1.70;1.60;;;13.40;90.30;;;;;;4975648;28;20475;-75
2022/10/20 03:47:07;;;;;;;1.90;1.80;;;13.40;90.20;;;;;;4975269;28;20953;-75
2022/10/20 03:49:34;;;;;;;1.70;1.60;;;13.50;90.30;;;;;;4975606;28;20453;-75
2022/10/20 03:52:01;;;;;;;1.43;1.43;;;13.60;89.70;;;;;;4975175;28;20470;-75
2022/10/20 03:54:29;;;;;;;1.97;1.87;;;13.60;89.40;;;;;;4975177;28;20478;-75
2022/10/20 03:56:55;;;;;;;1.17;1.17;;;13.60;89.20;;;;;;4975419;28;20446;-75
2022/10/20 03:59:22;;;;;;;1.20;1.20;;;13.60;89.40;;;;;;4975445;28;20866;-75
2022/10/20 04:01:49;;;;;;;1.30;1.30;;;13.50;89.50;;;;;;4974848;28;20482;-75
2022/10/20 04:04:16;;;;;;;1.20;1.20;;;13.60;89.70;;;;;;4975009;28;20454;-75
2022/10/20 04:06:42;;;;;;;1.73;1.63;;;13.70;89.30;;;;;;4974987;28;20871;-75
2022/10/20 04:09:09;;;;;;;1.57;1.57;;;13.80;88.80;;;;;;4975262;28;20450;-75
2022/10/20 04:11:37;;;;;;;1.40;1.40;;;13.70;88.90;;;;;;4975166;28;20492;-75
2022/10/20 04:14:04;;;;;;;1.60;1.50;;;13.70;89.00;;;;;;4975010;28;20490;-75
2022/10/20 04:16:31;;;;;;;1.50;1.40;;;13.70;88.90;;;;;;4975145;28;20456;-74
2022/10/20 04:18:57;;;;;;;1.30;1.30;;;13.60;89.20;;;;;;4975078;28;20442;-75
2022/10/20 04:21:25;;;;;;;1.80;1.70;;;13.60;89.40;;;;;;4974965;28;20470;-75
2022/10/20 04:23:51;;;;;;;1.47;1.47;;;13.60;89.20;;;;;;4974985;28;20450;-75
2022/10/20 04:26:18;;;;;;;1.70;1.60;;;13.70;89.20;;;;;;4974642;28;20439;-74
2022/10/20 04:28:46;;;;;;;1.80;1.70;;;13.70;89.20;;;;;;4974882;28;20461;-75
2022/10/20 04:31:13;;;;;;;1.63;1.63;;;13.70;89.10;;;;;;4974843;28;20474;-75
2022/10/20 04:33:40;;;;;;;1.70;1.60;;;13.70;89.20;;;;;;4974780;28;20450;-75
2022/10/20 04:36:09;;;;;;;1.60;1.50;;;13.70;88.90;;;;;;4974525;28;20941;-75
2022/10/20 04:38:36;;;;;;;1.20;1.20;;;13.70;89.00;;;;;;4974794;28;20458;-75
2022/10/20 04:41:04;;;;;;;1.53;1.43;;;13.80;88.90;;;;;;4974693;28;20525;-76
2022/10/20 04:43:31;;;;;;;1.40;1.40;;;13.90;88.70;;;;;;4974716;28;20446;-76
2022/10/20 04:46:01;;;;;;;1.77;1.67;;;14.00;88.20;;;;;;4974665;28;20454;-76
2022/10/20 04:48:28;;;;;;;1.40;1.37;;;13.90;88.30;;;;;;4974730;28;20501;-75
2022/10/20 04:51:02;;;;;;;1.40;1.40;;;13.80;88.70;;;;;;4974617;28;20473;-75
2022/10/20 04:53:29;;;;;;;1.73;1.63;;;13.80;88.50;;;;;;4974569;28;20508;-75
2022/10/20 04:55:56;;;;;;;1.53;1.53;;;13.80;88.60;;;;;;4974571;28;20481;-75
2022/10/20 04:58:23;;;;;;;1.53;1.53;;;13.90;88.40;;;;;;4974659;28;20450;-76
2022/10/20 05:00:50;;;;;;;1.40;1.40;;;14.00;88.10;;;;;;4974323;28;20477;-75
2022/10/20 05:03:18;;;;;;;1.53;1.47;;;14.00;88.00;;;;;;4974554;28;20442;-76
2022/10/20 05:05:45;;;;;;;1.60;1.60;;;14.00;87.80;;;;;;4976371;28;20446;-75
2022/10/20 05:08:12;;;;;;;1.53;1.43;;;13.90;88.20;;;;;;4978528;28;20449;-75
2022/10/20 05:10:38;;;;;;;1.83;1.70;;;14.00;87.90;;;;;;4978092;28;20453;-75
2022/10/20 05:13:05;;;;;;;1.60;1.50;;;13.90;88.20;;;;;;4978482;28;20457;-75
2022/10/20 05:15:32;;;;;;;1.23;1.23;;;13.90;88.00;;;;;;4978376;28;20477;-75
2022/10/20 05:17:58;;;;;;;1.67;1.60;;;13.80;87.60;;;;;;4978345;28;20461;-76
2022/10/20 05:20:27;;;;;;;1.47;1.47;;;13.80;87.60;;;;;;4978188;28;20861;-75
2022/10/20 05:22:53;;;;;;;1.20;1.20;;;13.80;87.20;;;;;;4978258;28;20450;-75
2022/10/20 05:25:20;;;;;;;1.33;1.33;;;13.90;86.60;;;;;;4978212;28;20446;-75
2022/10/20 05:27:47;;;;;;;1.70;1.60;;;13.90;86.50;;;;;;4978776;28;20497;-75
2022/10/20 05:30:13;;;;;;;1.47;1.47;;;13.90;86.10;;;;;;4978118;28;20450;-75
2022/10/20 05:32:40;;;;;;;1.73;1.63;;;13.90;86.10;;;;;;4977630;28;20478;-75
2022/10/20 05:35:07;;;;;;;1.10;1.10;;;13.90;86.10;;;;;;4977646;28;21001;-75
2022/10/20 05:37:35;;;;;;;1.20;1.20;;;13.90;85.90;;;;;;4978022;28;20477;-77
2022/10/20 05:40:05;;;;;;;1.33;1.27;;;14.00;85.80;;;;;;4977909;28;20464;-76
2022/10/20 05:42:32;;;;;;;1.60;1.50;;;14.00;85.70;;;;;;4977949;28;20565;-77
2022/10/20 05:44:58;;;;;;;1.53;1.20;;;14.00;85.60;;;;;;4977704;28;20969;-77
2022/10/20 05:47:25;;;;;;;1.30;1.30;;;14.10;85.50;;;;;;4978601;28;20465;-77
2022/10/20 05:49:52;;;;;;;1.47;1.47;;;14.10;85.60;;;;;;4978264;28;20454;-77
2022/10/20 05:52:18;;;;;;;1.50;1.40;;;14.00;85.20;;;;;;4978118;28;21027;-75
2022/10/20 05:54:46;;;;;;;1.57;1.47;;;14.00;85.50;;;;;;4977750;28;20556;-76
2022/10/20 05:57:13;;;;;;;1.33;1.23;;;14.00;85.30;;;;;;4977618;28;20455;-75
2022/10/20 05:59:40;;;;;;;1.83;1.73;;;14.10;85.20;;;;;;4977200;28;21004;-75
2022/10/20 06:02:06;;;;;;;1.40;1.30;;;14.10;85.10;;;;;;4977273;28;20474;-75
2022/10/20 06:04:33;;;;;;;1.33;1.23;;;14.10;84.90;;;;;;4977485;28;20454;-75
2022/10/20 06:07:00;;;;;;;1.73;1.63;;;14.10;84.90;;;;;;4977379;28;20458;-75
2022/10/20 06:09:26;;;;;;;1.80;1.70;;;14.10;85.00;;;;;;4977084;28;20461;-75
2022/10/20 06:11:54;;;;;;;1.93;1.83;;;14.10;84.90;;;;;;4977295;28;20469;-75
2022/10/20 06:14:22;;;;;;;1.70;1.60;;;14.00;84.90;;;;;;4977223;28;20513;-73
2022/10/20 06:16:50;;;;;;;2.00;1.90;;;14.10;85.00;;;;;;4977132;28;20449;-75
2022/10/20 06:19:17;;;;;;;1.33;1.27;;;14.10;84.90;;;;;;4977167;28;20478;-75
2022/10/20 06:21:44;;;;;;;1.53;1.40;;;14.10;84.80;;;;;;4977111;28;20466;-75
2022/10/20 06:24:11;;;;;;;1.20;1.20;;;14.10;84.70;;;;;;4976883;28;20449;-75
2022/10/20 06:26:39;;;;;;;1.40;1.30;;;14.20;84.80;;;;;;4977217;28;20454;-75
2022/10/20 06:29:10;;;;;;;1.40;1.40;;;14.20;84.60;;;;;;4977062;28;20450;-75
2022/10/20 06:31:38;;;;;;;1.37;1.37;;;14.30;84.40;;;;;;4976958;28;20470;-75
2022/10/20 06:34:06;;;;;;;1.50;1.40;;;14.30;84.40;;;;;;4977006;28;20523;-75
2022/10/20 06:36:35;;;;;;;1.50;1.50;;;14.30;84.50;;;;;;4976957;28;20557;-75
2022/10/20 06:39:03;;;;;;;1.50;1.40;;;14.30;84.60;;;;;;4976921;28;20537;-75
2022/10/20 06:41:30;;;;;;;1.30;1.30;;;14.40;84.50;;;;;;4976441;28;21001;-75
2022/10/20 06:43:58;;;;;;;1.77;1.67;;;14.40;84.70;;;;;;4976488;28;20447;-75
2022/10/20 06:46:28;;;;;;;1.47;1.47;;;14.50;84.80;;;;;;4976578;28;21045;-75
2022/10/20 06:48:55;;;;;;;2.00;1.90;;;14.70;84.60;;;;;;4976708;28;20449;-76
2022/10/20 06:51:22;;;;;;;1.80;1.70;;;14.60;84.50;;;;;;4976640;28;20505;-74
2022/10/20 06:53:50;;;;;;;1.57;1.50;;;14.80;84.60;;;;;;4976701;28;20454;-75
2022/10/20 06:56:18;;;;;;;1.60;1.60;;;15.00;84.30;;;;;;4976541;28;20478;-76
2022/10/20 06:58:47;;;;;;;1.43;1.43;;;15.40;83.20;;;;;;4976254;28;20942;-76
2022/10/20 07:01:16;;;;;;;1.60;1.50;;;15.60;82.00;;;;;;4975987;28;20889;-76
2022/10/20 07:03:45;;;;;;;1.57;1.47;;;15.70;81.20;;;;;;4976275;28;20906;-75
2022/10/20 07:06:14;;;;;;;1.43;1.43;;;15.80;81.30;;;;;;4976611;28;20453;-75
2022/10/20 07:08:41;;;;;;;1.30;1.30;;;15.90;81.10;;;;;;4976403;28;20505;-75
2022/10/20 07:11:11;;;;;;;1.30;1.30;;;16.00;81.30;;;;;;4976301;28;20529;-76
2022/10/20 07:13:39;;;;;;;1.20;1.20;;;16.20;80.60;;;;;;4976712;28;20513;-76
2022/10/20 07:16:08;;;;;;;1.20;1.10;;;16.20;80.80;;;;;;4976444;28;20490;-76
2022/10/20 07:18:36;;;;;;;1.33;1.33;;;16.50;79.70;;;;;;4976191;28;20450;-76
2022/10/20 07:21:06;;;;;;;1.47;1.47;;;16.40;79.40;;;;;;4976062;28;20498;-76
2022/10/20 07:23:35;;;;;;;1.60;1.50;;;16.20;79.80;;;;;;4976365;28;20477;-75
2022/10/20 07:26:02;;;;;;;1.67;1.57;;;16.30;80.10;;;;;;4976139;28;20497;-76
2022/10/20 07:28:29;;;;;;;1.40;1.40;;;16.70;79.50;;;;;;4975475;28;20446;-76
2022/10/20 07:30:57;;;;;;;1.20;1.20;;;17.00;77.60;;;;;;4975906;28;20470;-74
2022/10/20 07:33:24;;;;;;;1.23;1.20;;;17.10;77.60;;;;;;4975948;28;20458;-75
2022/10/20 07:35:51;;;;;;;1.30;1.00;;;17.60;77.00;;;;;;4975779;28;20478;-77
2022/10/20 07:38:19;;;;;;;0.90;0.90;;;18.00;76.00;;;;;;4976185;28;20502;-76
2022/10/20 07:40:45;;;;;;;1.10;1.10;;;18.50;75.40;;;;;;4975761;28;20479;-74
2022/10/20 07:43:12;;;;;;;1.50;1.00;;;18.10;74.60;;;;;;4975773;28;20450;-75
2022/10/20 07:45:39;;;;;;;1.40;1.30;;;17.70;76.00;;;;;;4975776;28;20454;-75
2022/10/20 07:48:08;;;;;;;1.00;1.00;;;18.00;75.10;;;;;;4975691;28;20472;-75
2022/10/20 07:50:35;;;;;;;0.90;0.90;;;17.90;76.10;;;;;;4975222;28;20901;-76
2022/10/20 07:53:02;;;;;;;1.30;1.20;;;17.90;77.00;;;;;;4975821;28;20434;-76
2022/10/20 07:55:31;;;;;;;1.10;1.10;;;17.60;76.60;;;;;;4975436;28;20482;-74
2022/10/20 07:57:57;;;;;;;1.20;1.20;;;17.20;77.70;;;;;;4975507;28;20457;-75
2022/10/20 08:00:24;;;;;;;1.07;1.07;;;17.30;78.70;;;;;;4975300;28;20454;-75
2022/10/20 08:02:51;;;;;;;1.10;1.10;;;17.20;77.80;;;;;;4974915;28;20958;-76
2022/10/20 08:05:18;;;;;;;1.00;1.00;;;16.90;79.40;;;;;;4975336;28;20477;-73
2022/10/20 08:07:44;;;;;;;1.00;1.00;;;17.00;79.50;;;;;;4974975;28;20856;-75
2022/10/20 08:10:11;;;;;;;1.00;1.00;;;17.00;80.10;;;;;;4975253;28;20450;-76
2022/10/20 08:12:39;;;;;;;0.93;0.93;;;17.30;78.70;;;;;;4975107;28;20477;-75
2022/10/20 08:15:06;;;;;;;0.90;0.90;;;17.10;79.80;;;;;;4974856;28;20443;-75
2022/10/20 08:17:33;;;;;;;1.00;1.00;;;17.10;79.90;;;;;;4975226;28;20458;-76
2022/10/20 08:20:00;;;;;;;1.10;1.10;;;17.50;79.70;;;;;;4975128;28;20457;-75
2022/10/20 08:22:26;;;;;;;1.10;1.10;;;17.60;79.30;;;;;;4975084;28;20487;-75
2022/10/20 08:24:53;;;;;;;0.93;0.93;;;17.50;78.40;;;;;;4974790;28;20851;-76
2022/10/20 08:27:20;;;;;;;1.00;1.00;;;17.30;78.90;;;;;;4975642;28;20533;-76
2022/10/20 08:29:49;;;;;;;0.90;0.90;;;17.10;79.80;;;;;;4975650;28;20450;-76
2022/10/20 08:32:15;;;;;;;0.90;0.90;;;16.80;81.60;;;;;;4974975;28;20470;-76
2022/10/20 08:34:42;;;;;;;1.07;0.93;;;16.30;82.60;;;;;;4974963;28;20450;-76
2022/10/20 08:37:09;;;;;;;1.10;1.10;;;16.20;83.40;;;;;;4974784;28;20486;-76
2022/10/20 08:39:36;;;;;;;0.90;0.90;;;16.40;83.00;;;;;;4974052;28;20454;-75
2022/10/20 08:42:03;;;;;;;0.90;0.90;;;16.60;83.30;;;;;;4974907;28;20466;-75
2022/10/20 08:44:33;;;;;;;0.90;0.90;;;16.70;81.80;;;;;;4974864;28;20884;-75
2022/10/20 08:47:03;;;;;;;1.00;1.00;;;16.80;82.40;;;;;;4974744;28;20454;-75
2022/10/20 08:49:33;;;;;;;0.80;0.80;;;16.80;81.50;;;;;;4974672;28;20797;-75
2022/10/20 08:52:01;;;;;;;1.00;1.00;;;16.90;81.50;;;;;;4974301;28;20977;-75
2022/10/20 08:54:28;;;;;;;1.03;1.03;;;16.80;81.20;;;;;;4974614;28;20462;-75
2022/10/20 08:56:54;;;;;;;0.90;0.90;;;16.80;81.50;;;;;;4974545;28;20482;-75
2022/10/20 08:59:28;;;;;;;0.97;0.93;;;16.80;81.10;;;;;;4974521;28;20458;-74
2022/10/20 09:01:55;;;;;;;1.03;1.03;;;16.60;82.20;;;;;;4975656;28;20497;-76
2022/10/20 09:04:26;;;;;;;1.07;1.07;;;16.40;82.90;;;;;;4974789;28;20445;-74
2022/10/20 09:06:57;;;;;;;0.90;0.90;;;16.40;83.30;;;;;;4974532;28;20434;-74
2022/10/20 09:09:25;;;;;;;0.90;0.90;;;16.60;83.40;;;;;;4974537;28;20430;-75
2022/10/20 09:12:03;;;;;;;0.90;0.90;;;16.80;83.20;;;;;;4974361;28;20598;-74
2022/10/20 09:14:34;;;;;;;1.00;1.00;;;16.70;81.80;;;;;;4974245;28;20913;-74
2022/10/20 09:17:01;;;;;;;0.90;0.90;;;16.20;83.10;;;;;;4975771;28;20703;-76
2022/10/20 09:19:29;;;;;;;0.87;0.87;;;16.20;83.90;;;;;;4974358;28;20467;-74
2022/10/20 09:22:03;;;;;;;0.80;0.80;;;16.30;83.90;;;;;;4974009;28;20898;-75
2022/10/20 09:24:31;;;;;;;0.90;0.90;;;16.40;83.10;;;;;;4974430;28;20442;-74
2022/10/20 09:27:20;;;;;;;0.90;0.90;;;16.30;83.20;;;;;;4974310;28;20469;-75
2022/10/20 09:29:47;;;;;;;0.80;0.80;;;16.40;83.20;;;;;;4974474;28;20506;-74
2022/10/20 09:32:18;;;;;;;0.90;0.90;;;16.60;83.00;;;;;;4974119;28;20470;-75
2022/10/20 09:34:46;;;;;;;0.90;0.90;;;16.60;82.60;;;;;;4974341;28;20431;-75
2022/10/20 09:37:18;;;;;;;0.90;0.90;;;16.50;83.60;;;;;;4974018;28;20485;-75
2022/10/20 09:39:52;;;;;;;1.10;0.90;;;16.50;83.40;;;;;;4974171;28;20497;-75
2022/10/20 09:42:21;;;;;;;1.07;1.07;;;16.60;83.70;;;;;;4974142;28;20462;-75
2022/10/20 09:44:56;;;;;;;0.90;0.90;;;16.70;83.40;;;;;;4974134;28;20454;-75
2022/10/20 09:47:24;;;;;;;0.80;0.80;;;16.70;83.50;;;;;;4974776;28;20437;-75
2022/10/20 09:49:56;;;;;;;0.90;0.90;;;16.70;83.00;;;;;;4974046;28;20454;-74
2022/10/20 09:52:29;;;;;;;0.90;0.87;;;16.50;83.70;;;;;;4976758;28;20868;-74
2022/10/20 09:55:00;;;;;;;0.70;0.70;;;16.40;84.70;;;;;;4977867;28;20525;-74
2022/10/20 09:57:27;;;;;;;1.13;1.13;;;16.50;84.30;;;;;;4977958;28;20882;-74
2022/10/20 09:59:55;;;;;;;0.90;0.90;;;16.70;83.80;;;;;;4977835;28;20452;-74
2022/10/20 10:02:31;;;;;;;0.83;0.83;;;16.80;83.20;;;;;;4977278;28;20504;-73
2022/10/20 10:08:00;;;;;;;1.07;0.90;;;16.80;82.90;;;;;;5169230;27;20300;-75
2022/10/20 10:10:29;;;;;;;0.90;0.90;;;16.50;84.20;;;;;;5152421;27;20442;-75
2022/10/20 10:13:00;;;;;;;0.80;0.80;;;16.60;85.30;;;;;;5152509;27;20438;-75
2022/10/20 10:15:31;;;;;;;0.80;0.80;;;16.70;84.40;;;;;;5152477;27;20434;-74
2022/10/20 10:17:59;;;;;;;1.43;0.97;;;16.40;84.20;;;;;;5152392;27;20441;-75
2022/10/20 10:20:35;;;;;;;0.80;0.80;;;16.30;84.70;;;;;;5153733;27;20940;-76
2022/10/20 10:23:21;;;;;;;0.93;0.93;;;16.40;84.60;;;;;;5152387;27;20426;-76
2022/10/20 10:25:48;;;;;;;0.70;0.70;;;16.60;84.90;;;;;;5152164;27;20473;-76
2022/10/20 10:28:28;;;;;;;0.90;0.90;;;16.80;84.30;;;;;;5152152;27;20464;-76
2022/10/20 10:31:24;;;;;;;0.90;0.80;;;16.80;84.00;;;;;;5152082;27;20491;-75
2022/10/20 10:33:54;;;;;;;0.77;0.77;;;17.00;83.60;;;;;;5152173;27;20760;-76
2022/10/20 10:36:31;;;;;;;0.80;0.80;;;17.10;83.30;;;;;;5152121;27;20450;-73
2022/10/20 10:39:00;;;;;;;1.10;1.00;;;17.30;82.20;;;;;;5151704;27;20422;-76
2022/10/20 10:41:41;;;;;;;0.90;0.90;;;17.20;82.80;;;;;;5151868;27;20506;-75
2022/10/20 10:44:15;;;;;;;1.00;0.90;;;17.20;82.80;;;;;;5152036;27;20462;-75
2022/10/20 10:46:48;;;;;;;0.70;0.70;;;17.30;82.60;;;;;;5151769;27;20462;-75
2022/10/20 10:49:38;;;;;;;0.63;0.63;;;17.40;82.70;;;;;;5151993;27;20430;-75
2022/10/20 10:52:17;;;;;;;0.90;0.90;;;17.50;81.60;;;;;;5151799;27;20466;-75
2022/10/20 10:54:58;;;;;;;0.70;0.70;;;17.40;81.70;;;;;;5151664;27;20467;-76
2022/10/20 10:57:31;;;;;;;1.00;0.83;;;17.40;81.70;;;;;;5151766;27;20479;-75
2022/10/20 11:00:01;;;;;;;0.70;0.70;;;17.30;82.00;;;;;;5151684;27;20437;-75
2022/10/20 11:02:58;;;;;;;0.80;0.70;;;17.40;82.40;;;;;;5152656;27;20458;-75
2022/10/20 11:05:52;;;;;;;0.70;0.70;;;17.50;81.90;;;;;;5153071;27;20431;-74
2022/10/20 11:08:33;;;;;;;0.97;0.80;;;17.30;82.40;;;;;;5153380;27;20877;-75
2022/10/20 11:11:11;;;;;;;0.70;0.70;;;17.50;82.40;;;;;;5152351;27;20995;-75
2022/10/20 11:13:43;;;;;;;0.80;0.80;;;17.60;81.50;;;;;;5153474;27;20422;-75
2022/10/20 11:16:26;;;;;;;1.23;0.70;;;17.60;82.20;;;;;;5152454;27;20423;-75
2022/10/20 11:19:10;;;;;;;0.90;0.90;;;17.40;82.70;;;;;;5140876;27;20439;-75
2022/10/20 11:21:46;;;;;;;0.93;0.80;;;17.30;82.40;;;;;;5138573;27;20546;-75
2022/10/20 11:24:24;;;;;;;0.77;0.77;;;17.30;83.20;;;;;;5138516;27;20902;-75
2022/10/20 11:27:07;;;;;;;0.77;0.77;;;17.60;82.20;;;;;;5138252;27;20458;-75
2022/10/20 11:29:39;;;;;;;0.70;0.70;;;17.60;82.30;;;;;;5138678;27;20439;-75
2022/10/20 11:32:16;;;;;;;0.70;0.70;;;17.80;82.30;;;;;;5138959;27;20474;-75
2022/10/20 11:34:52;;;;;;;0.67;0.67;;;17.90;81.80;;;;;;5138395;27;20435;-75
2022/10/20 11:37:24;;;;;;;0.70;0.70;;;17.80;81.60;;;;;;5138600;27;20418;-75
2022/10/20 11:39:57;;;;;;;0.80;0.80;;;17.80;81.40;;;;;;5137451;27;20501;-76
2022/10/20 11:42:31;;;;;;;0.93;0.80;;;17.70;82.40;;;;;;5137851;27;20468;-75
2022/10/20 11:45:01;;;;;;;0.73;0.73;;;17.70;82.00;;;;;;5136813;27;20922;-75
2022/10/20 11:47:34;;;;;;;0.70;0.70;;;17.70;82.60;;;;;;5136982;27;20479;-75
2022/10/20 11:50:00;;;;;;;0.70;0.70;;;17.80;82.90;;;;;;5136893;27;20431;-75
2022/10/20 11:52:54;;;;;;;1.00;1.00;;;18.00;82.20;;;;;;5136725;27;20870;-75
2022/10/20 11:55:56;;;;;;;0.80;0.80;;;17.90;82.10;;;;;;5136716;27;20491;-75
2022/10/20 11:58:48;;;;;;;0.80;0.77;;;17.80;82.40;;;;;;5136895;27;20457;-75
2022/10/20 12:01:30;;;;;;;0.70;0.70;;;18.00;81.80;;;;;;5136537;27;21022;-75
2022/10/20 12:04:23;;;;;;;0.70;0.70;;;17.90;81.90;;;;;;5136511;27;20426;-75
2022/10/20 12:07:02;;;;;;;0.70;0.70;;;17.70;82.30;;;;;;5136188;27;20836;-74
2022/10/20 12:09:44;;;;;;;0.60;0.60;;;17.60;83.20;;;;;;5136410;27;20484;-75
2022/10/20 12:12:17;;;;;;;0.80;0.80;;;17.60;83.00;;;;;;5136242;27;20470;-75
2022/10/20 12:14:51;;;;;;;1.17;0.80;;;17.70;83.30;;;;;;5136416;27;20431;-75
2022/10/20 12:17:35;;;;;;;0.77;0.77;;;17.60;83.10;;;;;;5135964;27;20954;-75
2022/10/20 12:20:39;;;;;;;0.70;0.70;;;17.50;83.40;;;;;;5136196;27;20435;-75
2022/10/20 12:23:06;;;;;;;1.00;0.80;;;17.60;83.70;;;;;;5135865;27;20929;-74
2022/10/20 12:25:39;;;;;;;0.80;0.77;;;17.80;82.50;;;;;;5136643;27;20491;-75
2022/10/20 12:28:41;;;;;;;0.70;0.70;;;18.00;82.40;;;;;;5136374;27;20546;-75
2022/10/20 12:31:10;;;;;;;0.60;0.60;;;17.90;82.40;;;;;;5135206;27;20494;-75
2022/10/20 12:33:59;;;;;;;0.70;0.70;;;17.80;82.00;;;;;;5136504;27;20439;-75
2022/10/20 12:36:31;;;;;;;0.80;0.80;;;17.80;82.20;;;;;;5136446;27;20518;-75
2022/10/20 12:39:18;;;;;;;0.70;0.70;;;17.80;82.10;;;;;;5136164;27;20427;-75
2022/10/20 12:41:58;;;;;;;0.80;0.60;;;18.00;81.60;;;;;;5135524;27;21003;-75
2022/10/20 12:44:27;;;;;;;0.67;0.67;;;18.20;81.30;;;;;;5135794;27;20769;-75
2022/10/20 12:46:58;;;;;;;0.70;0.70;;;18.40;80.80;;;;;;5135537;27;20547;-75
2022/10/20 12:49:30;;;;;;;0.70;0.70;;;18.40;80.00;;;;;;5135286;27;20431;-75
2022/10/20 12:51:58;;;;;;;1.53;0.70;;;18.40;80.30;;;;;;5135481;27;20863;-75
2022/10/20 12:54:32;;;;;;;0.80;0.80;;;18.40;81.00;;;;;;5135537;27;20518;-75
2022/10/20 12:57:03;;;;;;;0.70;0.70;;;18.10;82.50;;;;;;5135486;27;20427;-75
2022/10/20 12:59:40;;;;;;;0.70;0.70;;;18.20;82.80;;;;;;5135413;27;20432;-75
2022/10/20 13:02:48;;;;;;;0.70;0.70;;;18.20;82.50;;;;;;5135456;27;20515;-75
2022/10/20 13:05:41;;;;;;;0.70;0.70;;;18.30;82.60;;;;;;5135893;27;20423;-75
2022/10/20 13:08:29;;;;;;;0.80;0.80;;;18.20;83.30;;;;;;5135578;27;20542;-75
2022/10/20 13:10:57;;;;;;;1.00;0.90;;;18.30;83.00;;;;;;5135436;27;20470;-75
2022/10/20 13:13:42;;;;;;;0.90;0.90;;;18.20;83.50;;;;;;5135288;27;20447;-73
2022/10/20 13:16:17;;;;;;;0.90;0.90;;;18.30;83.50;;;;;;5134776;27;20439;-75
2022/10/20 13:18:49;;;;;;;0.90;0.90;;;18.10;84.30;;;;;;5135065;27;20430;-75
2022/10/20 13:21:26;;;;;;;1.00;0.90;;;18.00;84.10;;;;;;5134901;27;20467;-76
2022/10/20 13:24:02;;;;;;;1.20;1.00;;;17.80;84.60;;;;;;5134709;27;20770;-75
2022/10/20 13:26:31;;;;;;;0.87;0.87;;;17.70;85.70;;;;;;5134831;27;20435;-75
2022/10/20 13:29:00;;;;;;;1.10;1.00;;;17.70;86.30;;;;;;5134889;27;20435;-75
2022/10/20 13:31:32;;;;;;;1.17;1.10;;;17.40;86.40;;;;;;5134735;27;20459;-74
2022/10/20 13:34:10;;;;;;;0.80;0.80;;;17.30;86.60;;;;;;5134785;27;20423;-75
2022/10/20 13:36:55;;;;;;;1.07;1.07;;;17.00;87.20;;;;;;5134905;27;20430;-75
2022/10/20 13:39:30;;;;;;;1.00;1.00;;;17.10;87.70;;;;;;5135035;27;20450;-74
2022/10/20 13:42:09;;;;;;;0.90;0.90;;;17.30;87.50;;;;;;5134411;27;20463;-75
2022/10/20 13:44:43;;;;;;;1.00;1.00;;;17.60;86.20;;;;;;5135617;27;20431;-74
2022/10/20 13:47:45;;;;;;;0.90;0.90;;;17.70;85.80;;;;;;5135348;27;20492;-74
2022/10/20 13:50:16;;;;;;;0.80;0.80;;;17.90;84.80;;;;;;5135791;27;20423;-75
2022/10/20 13:52:47;;;;;;;0.87;0.87;;;18.20;83.90;;;;;;5135152;27;20819;-75
2022/10/20 13:55:18;;;;;;;0.80;0.80;;;18.40;82.80;;;;;;5134412;27;20995;-75
2022/10/20 13:57:51;;;;;;;1.20;1.10;;;18.60;82.50;;;;;;5134575;27;20427;-75
2022/10/20 14:00:21;;;;;;;1.07;1.00;;;18.70;82.20;;;;;;5134575;27;20428;-75
2022/10/20 14:02:58;;;;;;;1.13;1.03;;;18.60;81.60;;;;;;5134301;27;20466;-74
2022/10/20 14:05:28;;;;;;;0.83;0.83;;;18.60;82.10;;;;;;5134296;28;20435;-74
2022/10/20 14:07:54;;;;;;;0.90;0.90;;;18.50;82.50;;;;;;5134346;28;20462;-75
2022/10/20 14:10:28;;;;;;;2.40;1.00;;;18.10;83.60;;;;;;5133979;28;20980;-73
2022/10/20 14:12:56;;;;;;;1.53;1.20;;;17.90;84.70;;;;;;5134317;28;20834;-74
2022/10/20 14:15:30;;;;;;;1.40;0.80;;;18.00;84.80;;;;;;5133993;28;20838;-73
2022/10/20 14:18:03;;;;;;;0.90;0.90;;;18.20;84.40;;;;;;5134270;28;20422;-75
2022/10/20 14:20:33;;;;;;;0.90;0.90;;;18.30;84.00;;;;;;5134130;28;20478;-75
2022/10/20 14:23:01;;;;;;;0.80;0.80;;;18.20;83.90;;;;;;5134280;28;20423;-75
2022/10/20 14:25:30;;;;;;;1.00;1.00;;;18.20;84.20;;;;;;5134166;28;20450;-74
2022/10/20 14:27:58;;;;;;;0.70;0.70;;;18.20;84.20;;;;;;5134065;28;20474;-73
2022/10/20 14:30:25;;;;;;;0.80;0.80;;;18.30;84.00;;;;;;5134058;28;20447;-76
2022/10/20 14:32:53;;;;;;;0.77;0.77;;;18.40;83.50;;;;;;5133803;28;20949;-75
2022/10/20 14:35:29;;;;;;;0.90;0.90;;;18.50;82.90;;;;;;5134081;28;20442;-75
2022/10/20 14:38:02;;;;;;;0.80;0.80;;;18.50;82.80;;;;;;5134123;28;20419;-74
2022/10/20 14:40:32;;;;;;;1.63;0.90;;;18.40;83.10;;;;;;5134066;27;20906;-75
2022/10/20 14:43:02;;;;;;;0.90;0.80;;;18.30;83.00;;;;;;5133805;27;20468;-75
2022/10/20 14:45:29;;;;;;;0.80;0.80;;;18.10;83.20;;;;;;5134799;28;20423;-74
2022/10/20 14:47:59;;;;;;;1.00;0.90;;;17.90;84.40;;;;;;5133645;28;21058;-75
2022/10/20 14:50:32;;;;;;;0.90;0.90;;;18.10;83.70;;;;;;5133617;28;20926;-75
2022/10/20 14:53:27;;;;;;;0.83;0.83;;;18.30;83.40;;;;;;5135121;27;20480;-75
2022/10/20 14:55:54;;;;;;;1.00;1.00;;;18.40;83.20;;;;;;5137913;27;20470;-74
2022/10/20 14:58:38;;;;;;;0.83;0.83;;;18.40;82.60;;;;;;5137817;27;20431;-74
2022/10/20 15:01:21;;;;;;;1.00;1.00;;;18.10;83.20;;;;;;5137764;27;20463;-75
2022/10/20 15:04:03;;;;;;;0.90;0.90;;;17.80;84.50;;;;;;5138197;27;20483;-73
2022/10/20 15:06:30;;;;;;;0.87;0.83;;;17.80;84.60;;;;;;5137935;27;20453;-74
2022/10/20 15:08:58;;;;;;;1.10;1.10;;;18.00;84.30;;;;;;5137890;27;20483;-74
2022/10/20 15:11:27;;;;;;;1.20;1.20;;;18.20;83.70;;;;;;5137465;27;20467;-74
2022/10/20 15:13:57;;;;;;;0.90;0.90;;;18.30;83.50;;;;;;5137538;27;20934;-74
2022/10/20 15:16:40;;;;;;;1.03;1.00;;;18.30;83.10;;;;;;5138044;27;20520;-73
2022/10/20 15:19:28;;;;;;;0.90;0.90;;;18.30;82.60;;;;;;5137365;27;20434;-74
2022/10/20 15:22:02;;;;;;;0.87;0.87;;;18.40;82.20;;;;;;5137359;27;20499;-74
2022/10/20 15:24:30;;;;;;;0.83;0.83;;;18.50;82.30;;;;;;5137911;27;20435;-74
2022/10/20 15:26:57;;;;;;;0.90;0.90;;;18.50;82.20;;;;;;5137679;27;20469;-73
2022/10/20 15:29:25;;;;;;;1.17;1.07;;;18.40;82.70;;;;;;5137289;27;20482;-74
2022/10/20 15:31:52;;;;;;;1.00;1.00;;;18.40;82.70;;;;;;5137250;27;20465;-74
2022/10/20 15:34:19;;;;;;;0.80;0.80;;;18.50;82.60;;;;;;5137365;27;20877;-74
2022/10/20 15:36:46;;;;;;;1.00;0.90;;;18.50;82.60;;;;;;5136987;27;20938;-74
2022/10/20 15:39:13;;;;;;;0.93;0.87;;;18.50;82.50;;;;;;5137535;27;20443;-73
2022/10/20 15:41:41;;;;;;;1.53;1.00;;;18.50;82.60;;;;;;5136956;27;20478;-74
2022/10/20 15:44:14;;;;;;;0.80;0.80;;;18.20;83.50;;;;;;5136950;27;20442;-74
2022/10/20 15:46:41;;;;;;;1.00;1.00;;;18.10;84.10;;;;;;5136963;27;20432;-74
2022/10/20 15:49:07;;;;;;;0.90;0.90;;;18.20;83.60;;;;;;5136815;27;20479;-74
2022/10/20 15:51:37;;;;;;;1.07;0.97;;;18.30;83.40;;;;;;5136817;27;20467;-74
2022/10/20 15:54:03;;;;;;;3.70;1.10;;;18.20;83.20;;;;;;5136761;27;20446;-74
2022/10/20 15:56:31;;;;;;;0.80;0.80;;;18.10;83.80;;;;;;5136328;27;20949;-73
2022/10/20 15:58:59;;;;;;;0.87;0.87;;;18.20;83.40;;;;;;5136642;27;20486;-74
2022/10/20 16:01:26;;;;;;;0.80;0.80;;;18.30;83.40;;;;;;5136647;27;20462;-74
2022/10/20 16:03:54;;;;;;;1.00;1.00;;;18.30;83.20;;;;;;5136452;27;20443;-74
2022/10/20 16:06:21;;;;;;;0.97;0.97;;;18.40;83.10;;;;;;5136663;27;20494;-74
2022/10/20 16:08:50;;;;;;;1.00;1.00;;;18.30;83.30;;;;;;5136868;27;20839;-73
2022/10/20 16:11:19;;;;;;;1.20;1.10;;;18.40;83.30;;;;;;5136082;27;20471;-74
2022/10/20 16:13:45;;;;;;;1.10;1.00;;;18.10;83.80;;;;;;5136359;27;20443;-73